createdAt,value
2024-02-19T00:02:16.163Z,14.40
2024-02-19T00:05:21.463Z,15.70
2024-02-19T00:08:24.861Z,12.10
2024-02-19T00:11:22.390Z,9.70
2024-02-19T00:14:27.840Z,9.60
2024-02-19T00:17:33.365Z,12.20
2024-02-19T00:20:34.899Z,14.70
2024-02-19T00:23:28.110Z,11.90
2024-02-19T00:26:40.818Z,12.70
2024-02-19T00:29:35.809Z,10.50
2024-02-19T00:32:41.516Z,13.10
2024-02-19T00:35:55.209Z,9.20
2024-02-19T00:39:00.592Z,13.60
2024-02-19T00:42:13.284Z,10.40
2024-02-19T00:45:26.408Z,10.30
2024-02-19T00:48:28.363Z,10.70
2024-02-19T00:51:41.224Z,8.20
2024-02-19T00:54:48.751Z,11.40
2024-02-19T00:57:44.557Z,11.40
2024-02-19T01:00:59.833Z,13.10
2024-02-19T01:04:03.070Z,14.10
2024-02-19T01:07:17.490Z,15.50
2024-02-19T01:10:30.448Z,7.70
2024-02-19T01:13:37.446Z,12.10
2024-02-19T01:16:30.524Z,11.10
2024-02-19T01:19:34.561Z,12.90
2024-02-19T01:22:40.547Z,12.50
2024-02-19T01:25:47.474Z,15.90
2024-02-19T01:28:57.917Z,13.80
2024-02-19T01:31:53.235Z,14.80
2024-02-19T01:34:48.257Z,12.40
2024-02-19T01:37:43.504Z,18.70
2024-02-19T01:40:39.085Z,13.30
2024-02-19T01:43:45.617Z,13.70
2024-02-19T01:46:42.175Z,6.90
2024-02-19T01:49:55.757Z,15.40
2024-02-19T01:53:12.220Z,10.50
2024-02-19T01:56:11.365Z,10.10
2024-02-19T01:59:18.789Z,10.30
2024-02-19T02:02:23.417Z,10.90
2024-02-19T02:05:30.532Z,15.00
2024-02-19T02:08:43.399Z,12.50
2024-02-19T02:11:48.950Z,12.00
2024-02-19T02:14:53.576Z,15.80
2024-02-19T02:18:06.593Z,12.80
2024-02-19T02:20:59.576Z,10.00
2024-02-19T02:24:12.686Z,13.50
2024-02-19T02:27:05.684Z,14.10
2024-02-19T02:30:13.245Z,12.90
2024-02-19T02:33:06.278Z,11.80
2024-02-19T02:35:59.295Z,11.80
2024-02-19T02:38:52.379Z,6.70
2024-02-19T02:41:48.844Z,8.60
2024-02-19T02:44:52.616Z,10.70
2024-02-19T02:48:05.535Z,9.10
2024-02-19T02:51:18.496Z,11.50
2024-02-19T02:54:21.340Z,11.10
2024-02-19T02:57:23.895Z,7.00
2024-02-19T03:00:37.091Z,12.10
2024-02-19T03:03:48.782Z,16.60
2024-02-19T03:07:02.342Z,9.90
2024-02-19T03:10:04.053Z,12.10
2024-02-19T03:13:01.521Z,10.80
2024-02-19T03:15:56.976Z,9.70
2024-02-19T03:18:49.838Z,11.70
2024-02-19T03:22:01.643Z,9.50
2024-02-19T03:25:13.684Z,15.50
2024-02-19T03:28:18.310Z,14.50
2024-02-19T03:31:31.352Z,15.90
2024-02-19T03:34:37.988Z,12.30
2024-02-19T03:37:41.175Z,10.50
2024-02-19T03:40:46.637Z,13.80
2024-02-19T03:43:50.900Z,13.60
2024-02-19T03:47:03.618Z,10.10
2024-02-19T03:50:15.627Z,7.10
2024-02-19T03:53:21.730Z,7.90
2024-02-19T03:56:14.345Z,9.20
2024-02-19T03:59:20.812Z,10.50
2024-02-19T04:02:25.282Z,10.10
2024-02-19T04:05:31.343Z,6.80
2024-02-19T04:08:44.338Z,10.60
2024-02-19T04:11:47.489Z,7.60
2024-02-19T04:14:45.183Z,13.50
2024-02-19T04:17:57.880Z,11.40
2024-02-19T04:21:10.773Z,11.70
2024-02-19T04:24:23.713Z,11.50
2024-02-19T04:27:22.223Z,12.00
2024-02-19T04:30:49.176Z,13.60
2024-02-19T04:34:02.093Z,11.00
2024-02-19T04:37:13.482Z,12.20
2024-02-19T04:40:26.152Z,12.10
2024-02-19T04:43:39.239Z,11.10
2024-02-19T04:46:41.666Z,13.10
2024-02-19T04:49:54.581Z,13.50
2024-02-19T04:52:57.844Z,16.30
2024-02-19T04:55:50.256Z,14.90
2024-02-19T04:59:03.400Z,13.00
2024-02-19T05:01:56.855Z,15.70
2024-02-19T05:04:55.252Z,15.20
2024-02-19T05:08:07.842Z,18.30
2024-02-19T05:11:00.769Z,14.60
2024-02-19T05:14:13.720Z,21.10
2024-02-19T05:17:18.470Z,10.00
2024-02-19T05:20:14.510Z,17.60
2024-02-19T05:23:07.311Z,14.70
2024-02-19T05:26:28.482Z,14.40
2024-02-19T05:29:41.143Z,16.40
2024-02-19T05:32:46.692Z,20.20
2024-02-19T05:35:51.336Z,16.80
2024-02-19T05:38:56.529Z,22.50
2024-02-19T05:41:52.006Z,24.40
2024-02-19T05:44:47.825Z,20.90
2024-02-19T05:47:40.535Z,23.40
2024-02-19T05:50:53.136Z,24.10
2024-02-19T05:53:55.920Z,22.90
2024-02-19T05:56:52.042Z,21.50
2024-02-19T05:59:58.855Z,26.60
2024-02-19T06:03:05.472Z,22.30
2024-02-19T06:06:18.161Z,26.00
2024-02-19T06:09:21.052Z,27.10
2024-02-19T06:12:33.850Z,24.60
2024-02-19T06:15:36.702Z,21.80
2024-02-19T06:18:41.778Z,25.00
2024-02-19T06:21:46.252Z,27.70
2024-02-19T06:27:50.043Z,27.70
2024-02-19T06:31:03.586Z,29.40
2024-02-19T06:34:16.566Z,26.20
2024-02-19T06:37:22.947Z,33.30
2024-02-19T06:40:35.761Z,24.00
2024-02-19T06:43:48.555Z,31.60
2024-02-19T06:47:01.492Z,30.50
2024-02-19T06:50:15.383Z,33.30
2024-02-19T06:53:21.826Z,31.70
2024-02-19T06:56:15.142Z,36.80
2024-02-19T06:59:20.892Z,33.00
2024-02-19T07:02:33.812Z,28.80
2024-02-19T07:05:45.114Z,34.30
2024-02-19T07:08:37.619Z,33.60
2024-02-19T07:11:30.322Z,30.20
2024-02-19T07:14:22.954Z,39.20
2024-02-19T07:17:20.892Z,32.00
2024-02-19T07:20:27.661Z,31.60
2024-02-19T07:23:32.662Z,40.40
2024-02-19T07:26:27.860Z,39.50
2024-02-19T07:29:39.885Z,48.30
2024-02-19T07:32:32.540Z,32.70
2024-02-19T07:35:45.384Z,31.00
2024-02-19T07:38:51.883Z,40.10
2024-02-19T07:42:04.337Z,35.80
2024-02-19T07:45:08.127Z,37.40
2024-02-19T07:48:20.696Z,31.10
2024-02-19T07:51:20.950Z,25.50
2024-02-19T07:54:27.032Z,36.60
2024-02-19T07:57:39.957Z,37.80
2024-02-19T08:00:53.151Z,30.20
2024-02-19T08:04:06.830Z,37.00
2024-02-19T08:07:21.521Z,30.90
2024-02-19T08:10:17.098Z,36.80
2024-02-19T08:13:23.438Z,26.60
2024-02-19T08:16:16.665Z,35.80
2024-02-19T08:19:09.430Z,37.50
2024-02-19T08:22:02.038Z,29.50
2024-02-19T08:25:09.302Z,30.90
2024-02-19T08:28:13.288Z,36.10
2024-02-19T08:31:08.489Z,37.30
2024-02-19T08:34:21.839Z,30.00
2024-02-19T08:37:27.373Z,42.50
2024-02-19T08:40:30.779Z,28.40
2024-02-19T08:43:34.130Z,42.60
2024-02-19T08:46:36.726Z,26.50
2024-02-19T08:49:33.250Z,33.20
2024-02-19T08:52:45.886Z,27.60
2024-02-19T08:55:45.654Z,24.40
2024-02-19T08:58:50.328Z,26.20
2024-02-19T09:01:59.004Z,30.60
2024-02-19T09:04:52.100Z,26.60
2024-02-19T09:07:58.103Z,30.80
2024-02-19T09:11:02.157Z,25.10
2024-02-19T09:14:07.501Z,33.40
2024-02-19T09:17:00.389Z,34.60
2024-02-19T09:20:04.229Z,32.30
2024-02-19T09:22:56.730Z,34.60
2024-02-19T09:26:02.210Z,27.90
2024-02-19T09:28:54.522Z,29.80
2024-02-19T09:32:01.741Z,30.30
2024-02-19T09:34:54.403Z,32.70
2024-02-19T09:38:07.583Z,28.00
2024-02-19T09:41:06.034Z,30.10
2024-02-19T09:43:58.568Z,26.20
2024-02-19T09:46:59.224Z,31.90
2024-02-19T09:49:52.434Z,28.10
2024-02-19T09:52:47.263Z,20.90
2024-02-19T09:55:39.369Z,29.90
2024-02-19T09:58:37.032Z,26.80
2024-02-19T10:01:29.773Z,21.70
2024-02-19T10:04:22.789Z,28.50
2024-02-19T10:07:17.881Z,28.70
2024-02-19T10:10:18.548Z,25.80
2024-02-19T10:13:13.449Z,27.10
2024-02-19T10:16:07.716Z,28.50
2024-02-19T10:19:09.137Z,31.10
2024-02-19T10:22:02.689Z,32.40
2024-02-19T10:24:56.020Z,25.50
2024-02-19T10:28:00.162Z,29.70
2024-02-19T10:30:52.829Z,27.60
2024-02-19T10:33:46.364Z,29.40
2024-02-19T10:36:39.771Z,37.00
2024-02-19T10:39:52.711Z,29.60
2024-02-19T10:42:45.484Z,28.00
2024-02-19T10:45:44.009Z,24.80
2024-02-19T10:48:39.912Z,25.00
2024-02-19T10:51:33.401Z,33.60
2024-02-19T10:54:25.852Z,29.00
2024-02-19T10:57:22.267Z,29.40
2024-02-19T11:00:27.412Z,26.70
2024-02-19T11:03:19.366Z,24.70
2024-02-19T11:06:13.356Z,32.80
2024-02-19T11:09:14.115Z,33.50
2024-02-19T11:12:07.836Z,22.10
2024-02-19T11:15:03.409Z,23.80
2024-02-19T11:18:09.941Z,20.70
2024-02-19T11:21:08.433Z,26.90
2024-02-19T11:24:00.647Z,25.30
2024-02-19T11:26:53.063Z,26.60
2024-02-19T11:29:48.179Z,24.80
2024-02-19T11:32:41.144Z,24.00
2024-02-19T11:35:36.753Z,22.10
2024-02-19T11:38:31.419Z,26.80
2024-02-19T11:41:23.421Z,22.20
2024-02-19T11:44:16.850Z,22.70
2024-02-19T11:47:11.262Z,21.10
2024-02-19T11:50:06.298Z,22.10
2024-02-19T11:53:00.200Z,20.50
2024-02-19T11:56:02.700Z,19.40
2024-02-19T11:58:55.911Z,20.20
2024-02-19T12:01:53.925Z,17.30
2024-02-19T12:04:52.113Z,22.90
2024-02-19T12:07:44.932Z,18.80
2024-02-19T12:10:39.871Z,22.80
2024-02-19T12:13:34.038Z,22.70
2024-02-19T12:16:29.384Z,29.00
2024-02-19T12:19:21.900Z,25.80
2024-02-19T12:22:14.280Z,25.10
2024-02-19T12:25:07.364Z,26.70
2024-02-19T12:28:00.345Z,28.00
2024-02-19T12:30:53.104Z,22.50
2024-02-19T12:33:46.474Z,22.50
2024-02-19T12:36:39.260Z,23.90
2024-02-19T12:39:32.118Z,28.10
2024-02-19T12:42:25.155Z,24.40
2024-02-19T12:45:19.026Z,27.60
2024-02-19T12:48:15.007Z,24.60
2024-02-19T12:51:09.096Z,23.50
2024-02-19T12:54:01.124Z,24.90
2024-02-19T12:56:53.572Z,26.70
2024-02-19T12:59:48.272Z,21.60
2024-02-19T13:02:41.174Z,29.80
2024-02-19T13:05:36.936Z,20.00
2024-02-19T13:08:31.995Z,22.30
2024-02-19T13:11:26.609Z,25.70
2024-02-19T13:14:19.337Z,22.20
2024-02-19T13:17:15.100Z,20.60
2024-02-19T13:20:14.509Z,24.80
2024-02-19T13:23:06.720Z,17.10
2024-02-19T13:26:03.969Z,25.90
2024-02-19T13:28:56.473Z,22.20
2024-02-19T13:31:49.154Z,23.30
2024-02-19T13:34:41.951Z,25.30
2024-02-19T13:37:35.226Z,21.30
2024-02-19T13:40:27.828Z,23.70
2024-02-19T13:43:21.689Z,17.00
2024-02-19T13:46:14.728Z,21.70
2024-02-19T13:49:12.222Z,27.60
2024-02-19T13:52:05.285Z,26.20
2024-02-19T13:55:00.140Z,25.50
2024-02-19T13:57:53.435Z,20.10
2024-02-19T14:00:47.273Z,23.90
2024-02-19T14:03:39.597Z,23.50
2024-02-19T14:06:34.030Z,23.60
2024-02-19T14:09:29.908Z,25.90
2024-02-19T14:12:22.314Z,18.80
2024-02-19T14:15:15.046Z,22.90
2024-02-19T14:18:11.822Z,25.60
2024-02-19T14:21:06.044Z,21.80
2024-02-19T14:24:02.077Z,20.40
2024-02-19T14:26:54.785Z,21.60
2024-02-19T14:29:50.026Z,23.90
2024-02-19T14:32:44.310Z,26.20
2024-02-19T14:35:37.057Z,18.50
2024-02-19T14:38:29.728Z,22.90
2024-02-19T14:41:33.199Z,23.30
2024-02-19T14:44:26.090Z,22.70
2024-02-19T14:47:18.614Z,21.40
2024-02-19T14:50:13.122Z,21.40
2024-02-19T14:53:09.145Z,26.40
2024-02-19T14:56:03.912Z,22.10
2024-02-19T14:58:57.586Z,29.30
2024-02-19T15:01:50.080Z,25.20
2024-02-19T15:04:43.082Z,22.30
2024-02-19T15:07:35.745Z,25.30
2024-02-19T15:10:29.429Z,18.40
2024-02-19T15:13:23.914Z,20.90
2024-02-19T15:16:16.517Z,20.60
2024-02-19T15:19:18.860Z,25.60
2024-02-19T15:22:14.912Z,21.80
2024-02-19T15:25:12.135Z,26.70
2024-02-19T15:28:13.928Z,26.20
2024-02-19T15:31:09.222Z,30.00
2024-02-19T15:34:02.152Z,25.20
2024-02-19T15:36:54.798Z,25.50
2024-02-19T15:39:50.325Z,26.00
2024-02-19T15:42:45.618Z,27.70
2024-02-19T15:45:39.481Z,22.50
2024-02-19T15:48:34.087Z,17.00
2024-02-19T15:51:31.074Z,18.10
2024-02-19T15:54:30.917Z,22.50
2024-02-19T15:57:24.111Z,26.60
2024-02-19T16:00:19.102Z,25.70
2024-02-19T16:03:23.373Z,23.80
2024-02-19T16:06:19.344Z,20.40
2024-02-19T16:09:21.353Z,22.00
2024-02-19T16:12:13.893Z,29.90
2024-02-19T16:15:09.757Z,27.20
2024-02-19T16:18:14.551Z,25.80
2024-02-19T16:21:15.012Z,19.60
2024-02-19T16:24:08.740Z,16.40
2024-02-19T16:27:06.518Z,18.70
2024-02-19T16:30:06.266Z,19.00
2024-02-19T16:33:02.016Z,23.60
2024-02-19T16:35:54.960Z,27.90
2024-02-19T16:38:48.550Z,26.50
2024-02-19T16:41:50.492Z,26.90
2024-02-19T16:44:43.089Z,35.90
2024-02-19T16:47:35.906Z,36.10
2024-02-19T16:50:28.954Z,39.90
2024-02-19T16:53:21.351Z,27.70
2024-02-19T16:56:23.831Z,20.40
2024-02-19T16:59:37.714Z,21.70
2024-02-19T17:02:40.247Z,23.00
2024-02-19T17:05:35.729Z,26.30
2024-02-19T17:08:28.791Z,25.40
2024-02-19T17:11:30.595Z,25.70
2024-02-19T17:14:23.347Z,29.90
2024-02-19T17:17:15.984Z,27.40
2024-02-19T17:20:20.066Z,28.00
2024-02-19T17:23:21.584Z,27.00
2024-02-19T17:26:14.116Z,20.80
2024-02-19T17:29:09.373Z,23.20
2024-02-19T17:32:05.198Z,23.30
2024-02-19T17:35:05.728Z,26.60
2024-02-19T17:37:58.286Z,25.00
2024-02-19T17:40:51.062Z,26.90
2024-02-19T17:43:54.628Z,28.50
2024-02-19T17:47:08.716Z,24.90
2024-02-19T17:50:02.092Z,22.40
2024-02-19T17:52:56.760Z,18.80
2024-02-19T17:56:01.406Z,25.40
2024-02-19T17:59:06.806Z,23.80
2024-02-19T18:02:13.304Z,24.40
2024-02-19T18:05:05.760Z,23.60
2024-02-19T18:08:06.292Z,27.50
2024-02-19T18:11:02.629Z,23.40
2024-02-19T18:14:06.896Z,26.80
2024-02-19T18:17:20.211Z,23.30
2024-02-19T18:20:34.378Z,25.40
2024-02-19T18:23:48.629Z,25.30
2024-02-19T18:26:41.116Z,28.40
2024-02-19T18:29:46.489Z,20.30
2024-02-19T18:32:50.540Z,25.20
2024-02-19T18:35:42.989Z,27.40
2024-02-19T18:38:56.270Z,29.90
2024-02-19T18:41:58.938Z,27.20
2024-02-19T18:45:13.093Z,19.80
2024-02-19T18:48:16.786Z,23.20
2024-02-19T18:51:19.404Z,26.40
2024-02-19T18:54:23.737Z,32.30
2024-02-19T18:57:16.726Z,31.40
2024-02-19T19:00:20.368Z,29.20
2024-02-19T19:03:28.523Z,29.40
2024-02-19T19:06:31.691Z,34.70
2024-02-19T19:09:45.275Z,33.50
2024-02-19T19:12:37.993Z,25.00
2024-02-19T19:15:54.924Z,28.30
2024-02-19T19:18:50.270Z,22.50
2024-02-19T19:21:44.477Z,28.10
2024-02-19T19:24:43.609Z,22.60
2024-02-19T19:27:43.452Z,24.40
2024-02-19T19:30:46.562Z,26.30
2024-02-19T19:33:45.595Z,38.50
2024-02-19T19:36:41.565Z,24.00
2024-02-19T19:39:54.803Z,23.90
2024-02-19T19:43:07.755Z,23.50
2024-02-19T19:46:16.034Z,17.20
2024-02-19T19:49:23.772Z,23.90
2024-02-19T19:52:26.714Z,24.50
2024-02-19T19:55:19.272Z,21.00
2024-02-19T19:58:33.427Z,24.80
2024-02-19T20:01:25.811Z,24.30
2024-02-19T20:04:21.081Z,23.90
2024-02-19T20:07:27.859Z,25.50
2024-02-19T20:10:20.497Z,20.10
2024-02-19T20:13:25.713Z,23.70
2024-02-19T20:16:22.366Z,29.00
2024-02-19T20:19:15.569Z,34.20
2024-02-19T20:22:08.556Z,22.60
2024-02-19T20:25:00.909Z,27.70
2024-02-19T20:28:07.586Z,19.10
2024-02-19T20:31:20.283Z,20.70
2024-02-19T20:34:23.321Z,23.30
2024-02-19T20:37:30.512Z,25.50
2024-02-19T20:40:23.205Z,24.30
2024-02-19T20:43:29.827Z,18.10
2024-02-19T20:46:23.077Z,18.40
2024-02-19T20:49:15.596Z,15.60
2024-02-19T20:52:09.322Z,16.40
2024-02-19T20:55:01.944Z,18.40
2024-02-19T20:57:56.126Z,18.80
2024-02-19T21:00:48.622Z,23.20
2024-02-19T21:03:45.809Z,18.30
2024-02-19T21:06:42.286Z,20.00
2024-02-19T21:09:36.543Z,21.00
2024-02-19T21:12:32.531Z,17.40
2024-02-19T21:15:25.610Z,15.70
2024-02-19T21:18:30.624Z,14.00
2024-02-19T21:21:33.932Z,16.10
2024-02-19T21:24:27.811Z,21.90
2024-02-19T21:27:20.822Z,19.50
2024-02-19T21:30:14.302Z,19.30
2024-02-19T21:33:07.122Z,19.30
2024-02-19T21:36:09.019Z,20.40
2024-02-19T21:39:06.892Z,23.40
2024-02-19T21:41:59.573Z,16.30
2024-02-19T21:44:52.465Z,16.50
2024-02-19T21:47:45.855Z,18.60
2024-02-19T21:50:38.643Z,19.60
2024-02-19T21:53:31.223Z,19.20
2024-02-19T21:56:43.894Z,22.00
2024-02-19T21:59:57.111Z,20.60
2024-02-19T22:02:49.812Z,19.70
2024-02-19T22:05:45.803Z,21.00
2024-02-19T22:09:01.417Z,21.20
2024-02-19T22:11:54.269Z,19.50
2024-02-19T22:14:56.697Z,21.00
2024-02-19T22:17:49.522Z,22.90
2024-02-19T22:20:42.089Z,18.80
2024-02-19T22:23:47.844Z,17.10
2024-02-19T22:26:40.005Z,18.50
2024-02-19T22:29:35.872Z,16.40
2024-02-19T22:32:33.257Z,18.60
2024-02-19T22:35:37.939Z,22.80
2024-02-19T22:38:30.565Z,21.30
2024-02-19T22:41:45.673Z,18.40
2024-02-19T22:44:41.574Z,18.90
2024-02-19T22:47:43.123Z,22.00
2024-02-19T22:50:56.313Z,18.70
2024-02-19T22:53:48.789Z,19.10
2024-02-19T22:57:02.794Z,20.10
2024-02-19T23:00:27.525Z,22.90
2024-02-19T23:03:33.290Z,15.30
2024-02-19T23:06:46.713Z,18.10
2024-02-19T23:09:51.817Z,17.10
2024-02-19T23:13:03.313Z,15.10
2024-02-19T23:15:56.284Z,18.30
2024-02-19T23:18:49.247Z,18.60
2024-02-19T23:21:42.044Z,17.90
2024-02-19T23:24:40.203Z,16.50
2024-02-19T23:27:52.903Z,18.70
2024-02-19T23:31:05.842Z,18.70
2024-02-19T23:34:11.784Z,19.60
2024-02-19T23:37:13.213Z,15.80
2024-02-19T23:40:20.543Z,19.60
2024-02-19T23:43:22.367Z,15.20
2024-02-19T23:46:27.295Z,16.40
2024-02-19T23:49:34.190Z,18.50
2024-02-19T23:52:26.873Z,16.50
2024-02-19T23:55:39.728Z,17.80
2024-02-19T23:58:33.495Z,19.00
